AIC13MD VABB-VIDP
Flight info
| Callsign | AIC13MD |
|---|---|
| Flight time | N/A |
| Altitude | 41000 |
| Route | ANOL2AXISRIS/27 ANOLI2A ISRIS Q1 UKASO UKASO6G |
| Aircraft | A359/H-SDE2E3GHIJ3J4J5LM1ORWXY/LB1D1 |
Departure
| Time | 2026-04-30 14:29 |
|---|---|
| Airport | Chhatrapati Shivaji Maharaj International Airport (VABB) |
Arrival
| Time | N/A |
|---|---|
| Airport | Indira Gandhi International Airport (VIDP) |
| Time | Latitude | Longitude | Altitude | Speed | Heading |
|---|---|---|---|---|---|
| 2026-04-30 14:05 | 19.09451 | 72.87336 | 40 ft | 0 kts | 316° |
| 2026-04-30 14:19 | 19.09425 | 72.87362 | 37 ft | 3 kts | 317° |
| 2026-04-30 14:19 | 19.09410 | 72.87376 | 37 ft | 3 kts | 316° |
| 2026-04-30 14:19 | 19.09399 | 72.87389 | 37 ft | 2 kts | 297° |
| 2026-04-30 14:20 | 19.09396 | 72.87400 | 39 ft | 1 kts | 254° |
| 2026-04-30 14:20 | 19.09399 | 72.87409 | 39 ft | 1 kts | 242° |
| 2026-04-30 14:20 | 19.09401 | 72.87413 | 37 ft | 0 kts | 240° |
| 2026-04-30 14:23 | 19.09363 | 72.87375 | 40 ft | 7 kts | 210° |
| 2026-04-30 14:24 | 19.09249 | 72.87321 | 40 ft | 11 kts | 242° |
| 2026-04-30 14:24 | 19.09186 | 72.87265 | 40 ft | 13 kts | 197° |
| 2026-04-30 14:25 | 19.09053 | 72.87364 | 40 ft | 15 kts | 89° |
| 2026-04-30 14:25 | 19.09057 | 72.87695 | 39 ft | 29 kts | 89° |
| 2026-04-30 14:26 | 19.09061 | 72.88034 | 39 ft | 0 kts | 89° |
| 2026-04-30 14:26 | 19.09058 | 72.88037 | 39 ft | 1 kts | 118° |
| 2026-04-30 14:26 | 19.09018 | 72.88046 | 39 ft | 0 kts | 174° |
| 2026-04-30 14:28 | 19.08994 | 72.88049 | 38 ft | 9 kts | 174° |
| 2026-04-30 14:28 | 19.08915 | 72.88034 | 37 ft | 14 kts | 212° |
| 2026-04-30 14:28 | 19.08889 | 72.87957 | 38 ft | 14 kts | 266° |
| 2026-04-30 14:28 | 19.08881 | 72.87630 | 38 ft | 83 kts | 268° |
| 2026-04-30 14:29 | 19.08870 | 72.85523 | 424 ft | 176 kts | 268° |
| 2026-04-30 14:29 | 19.08859 | 72.83362 | 1706 ft | 191 kts | 269° |
| 2026-04-30 14:30 | 19.08760 | 72.77776 | 2858 ft | 250 kts | 274° |
| 2026-04-30 14:31 | 19.10491 | 72.74641 | 3969 ft | 256 kts | 314° |
| 2026-04-30 14:31 | 19.13648 | 72.72941 | 5117 ft | 267 kts | 353° |
| 2026-04-30 14:31 | 19.15517 | 72.73013 | 5682 ft | 272 kts | 1° |
| 2026-04-30 14:32 | 19.18680 | 72.73402 | 6589 ft | 277 kts | 2° |
| 2026-04-30 14:32 | 19.21231 | 72.73743 | 7254 ft | 281 kts | 3° |